createdAt,value
2022-10-26T00:02:23.142Z,98404.19
2022-10-26T00:04:49.506Z,98409.00
2022-10-26T00:07:15.817Z,98405.44
2022-10-26T00:09:42.167Z,98399.78
2022-10-26T00:12:08.483Z,98406.03
2022-10-26T00:14:34.858Z,98406.38
2022-10-26T00:17:01.239Z,98413.41
2022-10-26T00:19:27.596Z,98412.59
2022-10-26T00:21:54.013Z,98416.88
2022-10-26T00:24:20.416Z,98421.81
2022-10-26T00:26:47.257Z,98432.09
2022-10-26T00:29:13.650Z,98424.09
2022-10-26T00:31:40.133Z,98430.34
2022-10-26T00:34:06.500Z,98424.78
2022-10-26T00:36:32.823Z,98427.28
2022-10-26T00:38:59.161Z,98430.78
2022-10-26T00:41:26.687Z,98438.84
2022-10-26T00:43:53.155Z,98433.31
2022-10-26T00:46:22.568Z,98435.84
2022-10-26T00:48:50.911Z,98445.66
2022-10-26T00:51:32.804Z,98450.66
2022-10-26T00:54:03.229Z,98453.09
2022-10-26T00:56:29.946Z,98460.41
2022-10-26T00:58:56.264Z,98464.75
2022-10-26T01:01:22.683Z,98462.41
2022-10-26T01:03:49.338Z,98466.00
2022-10-26T01:06:15.734Z,98461.41
2022-10-26T01:08:42.298Z,98465.56
2022-10-26T01:11:08.626Z,98462.91
2022-10-26T01:13:35.901Z,98461.06
2022-10-26T01:16:22.379Z,98457.09
2022-10-26T01:19:04.015Z,98442.88
2022-10-26T01:21:37.183Z,98442.28
2022-10-26T01:24:09.494Z,98452.41
2022-10-26T01:26:54.846Z,98440.66
2022-10-26T01:29:53.611Z,98433.97
2022-10-26T01:32:38.065Z,98432.94
2022-10-26T01:35:08.537Z,98436.41
2022-10-26T01:37:36.762Z,98426.09
2022-10-26T01:40:06.343Z,98431.47
2022-10-26T01:42:32.664Z,98428.13
2022-10-26T01:45:00.855Z,98419.81
2022-10-26T01:47:27.565Z,98423.75
2022-10-26T01:49:54.794Z,98418.97
2022-10-26T01:52:21.164Z,98425.63
2022-10-26T01:54:47.485Z,98415.94
2022-10-26T01:57:14.763Z,98417.13
2022-10-26T01:59:56.850Z,98418.16
2022-10-26T02:02:39.056Z,98413.56
2022-10-26T02:05:11.612Z,98412.59
2022-10-26T02:07:38.146Z,98409.16
2022-10-26T02:10:07.553Z,98410.50
2022-10-26T02:12:38.134Z,98413.94
2022-10-26T02:15:08.888Z,98414.56
2022-10-26T02:17:42.790Z,98409.31
2022-10-26T02:20:09.389Z,98412.34
2022-10-26T02:22:37.328Z,98410.19
2022-10-26T02:25:07.911Z,98413.94
2022-10-26T02:27:35.109Z,98416.34
2022-10-26T02:30:01.449Z,98397.63
2022-10-26T02:32:28.760Z,98405.63
2022-10-26T02:34:55.183Z,98401.38
2022-10-26T02:37:21.499Z,98397.13
2022-10-26T02:39:48.380Z,98405.09
2022-10-26T02:42:14.718Z,98406.41
2022-10-26T02:44:50.899Z,98403.41
2022-10-26T02:47:17.780Z,98397.84
2022-10-26T02:49:44.216Z,98401.75
2022-10-26T02:52:22.594Z,98394.88
2022-10-26T02:54:51.799Z,98388.72
2022-10-26T02:57:25.385Z,98395.28
2022-10-26T02:59:51.802Z,98392.16
2022-10-26T03:02:18.121Z,98396.34
2022-10-26T03:04:44.455Z,98396.56
2022-10-26T03:07:10.770Z,98392.03
2022-10-26T03:09:37.100Z,98388.81
2022-10-26T03:12:03.988Z,98387.84
2022-10-26T03:14:30.413Z,98384.41
2022-10-26T03:16:56.734Z,98379.94
2022-10-26T03:19:23.082Z,98389.03
2022-10-26T03:21:49.409Z,98385.31
2022-10-26T03:24:15.720Z,98383.44
2022-10-26T03:26:42.103Z,98375.19
2022-10-26T03:29:09.052Z,98382.63
2022-10-26T03:31:35.797Z,98374.09
2022-10-26T03:34:02.158Z,98384.63
2022-10-26T03:36:28.483Z,98378.16
2022-10-26T03:38:54.816Z,98391.31
2022-10-26T03:41:21.151Z,98386.88
2022-10-26T03:43:48.505Z,98386.59
2022-10-26T03:46:15.139Z,98387.19
2022-10-26T03:48:41.462Z,98394.41
2022-10-26T03:51:07.825Z,98387.41
2022-10-26T03:53:34.212Z,98389.22
2022-10-26T03:56:00.534Z,98382.16
2022-10-26T03:58:26.952Z,98386.13
2022-10-26T04:00:53.336Z,98382.56
2022-10-26T04:03:19.658Z,98386.50
2022-10-26T04:05:45.982Z,98382.75
2022-10-26T04:08:12.376Z,98378.97
2022-10-26T04:10:38.713Z,98381.88
2022-10-26T04:13:05.032Z,98382.47
2022-10-26T04:15:31.363Z,98385.41
2022-10-26T04:18:00.913Z,98385.66
2022-10-26T04:20:27.349Z,98374.72
2022-10-26T04:22:57.467Z,98384.50
2022-10-26T04:25:25.605Z,98378.72
2022-10-26T04:27:54.031Z,98384.38
2022-10-26T04:30:20.731Z,98375.72
2022-10-26T04:32:47.324Z,98383.84
2022-10-26T04:35:15.430Z,98385.72
2022-10-26T04:37:41.939Z,98385.72
2022-10-26T04:40:08.465Z,98395.28
2022-10-26T04:42:41.729Z,98390.00
2022-10-26T04:45:08.382Z,98385.56
2022-10-26T04:47:34.721Z,98388.38
2022-10-26T04:50:01.054Z,98382.59
2022-10-26T04:52:27.374Z,98386.06
2022-10-26T04:54:53.766Z,98395.72
2022-10-26T04:57:20.336Z,98379.63
2022-10-26T04:59:46.672Z,98381.44
2022-10-26T05:02:13.022Z,98378.56
2022-10-26T05:04:39.396Z,98383.06
2022-10-26T05:07:05.726Z,98388.53
2022-10-26T05:09:32.037Z,98393.69
2022-10-26T05:11:58.363Z,98402.59
2022-10-26T05:14:24.697Z,98398.22
2022-10-26T05:16:51.171Z,98392.25
2022-10-26T05:19:17.488Z,98398.63
2022-10-26T05:24:15.067Z,98394.81
2022-10-26T05:26:41.456Z,98394.00
2022-10-26T05:29:08.064Z,98386.16
2022-10-26T05:31:34.442Z,98397.09
2022-10-26T05:34:00.770Z,98399.28
2022-10-26T05:36:27.103Z,98394.00
2022-10-26T05:38:53.423Z,98397.94
2022-10-26T05:41:19.774Z,98394.91
2022-10-26T05:43:47.243Z,98390.50
2022-10-26T05:46:13.604Z,98389.50
2022-10-26T05:48:39.915Z,98380.03
2022-10-26T05:51:06.247Z,98379.88
2022-10-26T05:53:32.581Z,98371.91
2022-10-26T05:55:59.062Z,98365.19
2022-10-26T05:58:25.557Z,98366.59
2022-10-26T06:01:11.383Z,98361.22
2022-10-26T06:03:43.961Z,98366.06
2022-10-26T06:06:10.300Z,98353.34
2022-10-26T06:08:36.754Z,98350.41
2022-10-26T06:11:03.347Z,98346.00
2022-10-26T06:13:29.735Z,98344.84
2022-10-26T06:16:08.411Z,98344.16
2022-10-26T06:18:41.321Z,98338.25
2022-10-26T06:21:13.780Z,98335.13
2022-10-26T06:23:42.555Z,98343.28
2022-10-26T06:26:08.829Z,98335.28
2022-10-26T06:28:51.038Z,98343.78
2022-10-26T06:31:17.746Z,98344.72
2022-10-26T06:33:44.071Z,98344.88
2022-10-26T06:36:23.401Z,98347.41
2022-10-26T06:38:53.723Z,98339.75
2022-10-26T06:41:20.093Z,98337.84
2022-10-26T06:43:46.597Z,98335.97
2022-10-26T06:46:15.652Z,98336.78
2022-10-26T06:48:48.119Z,98339.66
2022-10-26T06:51:15.058Z,98337.78
2022-10-26T06:53:57.252Z,98346.47
2022-10-26T06:56:24.742Z,98347.28
2022-10-26T06:58:52.035Z,98344.31
2022-10-26T07:01:18.831Z,98350.09
2022-10-26T07:03:45.262Z,98324.81
2022-10-26T07:06:11.772Z,98336.75
2022-10-26T07:08:38.122Z,98327.31
2022-10-26T07:11:04.796Z,98322.75
2022-10-26T07:13:31.131Z,98326.06
2022-10-26T07:15:57.498Z,98319.59
2022-10-26T07:18:23.815Z,98318.16
2022-10-26T07:20:50.146Z,98316.63
2022-10-26T07:23:16.736Z,98316.47
2022-10-26T07:25:43.181Z,98313.31
2022-10-26T07:28:10.522Z,98309.16
2022-10-26T07:30:37.210Z,98322.19
2022-10-26T07:33:07.664Z,98315.97
2022-10-26T07:35:34.196Z,98303.84
2022-10-26T07:38:00.532Z,98307.81
2022-10-26T07:40:27.316Z,98300.00
2022-10-26T07:42:55.818Z,98300.03
2022-10-26T07:45:22.175Z,98302.91
2022-10-26T07:47:49.265Z,98307.31
2022-10-26T07:50:15.937Z,98306.13
2022-10-26T07:52:42.352Z,98301.91
2022-10-26T07:55:09.223Z,98299.13
2022-10-26T07:57:35.549Z,98291.66
2022-10-26T08:00:01.971Z,98296.88
2022-10-26T08:02:28.291Z,98295.38
2022-10-26T08:04:54.617Z,98287.03
2022-10-26T08:07:21.689Z,98292.78
2022-10-26T08:09:48.025Z,98288.44
2022-10-26T08:12:16.514Z,98294.38
2022-10-26T08:14:42.938Z,98292.47
2022-10-26T08:17:09.320Z,98298.84
2022-10-26T08:19:35.720Z,98302.38
2022-10-26T08:22:02.068Z,98299.22
2022-10-26T08:24:28.937Z,98299.28
2022-10-26T08:26:55.272Z,98296.56
2022-10-26T08:29:21.587Z,98297.16
2022-10-26T08:31:48.375Z,98293.22
2022-10-26T08:34:14.922Z,98302.56
2022-10-26T08:36:41.265Z,98285.34
2022-10-26T08:39:07.697Z,98285.03
2022-10-26T08:41:53.470Z,98280.22
2022-10-26T08:44:27.433Z,98267.84
2022-10-26T08:47:03.202Z,98270.13
2022-10-26T08:49:35.599Z,98258.13
2022-10-26T08:52:02.161Z,98264.88
2022-10-26T08:54:41.920Z,98271.09
2022-10-26T08:57:27.215Z,98270.44
2022-10-26T08:59:56.801Z,98268.53
2022-10-26T09:02:24.755Z,98260.72
2022-10-26T09:04:51.484Z,98266.78
2022-10-26T09:07:30.083Z,98277.38
2022-10-26T09:09:56.389Z,98271.44
2022-10-26T09:12:34.948Z,98272.97
2022-10-26T09:15:23.288Z,98276.00
2022-10-26T09:17:53.142Z,98281.59
2022-10-26T09:20:26.835Z,98290.38
2022-10-26T09:23:13.394Z,98288.59
2022-10-26T09:25:39.974Z,98284.28
2022-10-26T09:28:08.783Z,98284.22
2022-10-26T09:30:35.831Z,98276.59
2022-10-26T09:33:16.133Z,98284.44
2022-10-26T09:35:42.471Z,98275.28
2022-10-26T09:38:29.069Z,98279.38
2022-10-26T09:40:55.386Z,98281.84
2022-10-26T09:43:42.010Z,98287.44
2022-10-26T09:46:08.758Z,98288.66
2022-10-26T09:48:41.804Z,98288.66
2022-10-26T09:51:08.170Z,98295.72
2022-10-26T09:53:34.489Z,98288.97
2022-10-26T09:56:06.723Z,98297.41
2022-10-26T09:58:35.203Z,98301.09
2022-10-26T10:01:01.566Z,98297.06
2022-10-26T10:03:28.627Z,98305.34
2022-10-26T10:06:14.205Z,98308.38
2022-10-26T10:08:40.534Z,98310.88
2022-10-26T10:11:11.221Z,98294.88
2022-10-26T10:13:38.526Z,98304.16
2022-10-26T10:16:20.855Z,98300.50
2022-10-26T10:18:53.133Z,98295.34
2022-10-26T10:21:19.465Z,98297.63
2022-10-26T10:23:49.703Z,98304.97
2022-10-26T10:26:16.089Z,98300.22
2022-10-26T10:28:42.671Z,98293.59
2022-10-26T10:31:19.372Z,98293.50
2022-10-26T10:33:46.708Z,98287.81
2022-10-26T10:36:18.218Z,98283.03
2022-10-26T10:38:44.826Z,98280.44
2022-10-26T10:41:31.363Z,98281.53
2022-10-26T10:44:07.658Z,98289.34
2022-10-26T10:46:34.014Z,98288.44
2022-10-26T10:49:03.220Z,98283.78
2022-10-26T10:51:30.623Z,98294.31
2022-10-26T10:53:57.073Z,98294.22
2022-10-26T10:56:31.871Z,98302.34
2022-10-26T10:59:13.366Z,98300.66
2022-10-26T11:01:40.918Z,98303.97
2022-10-26T11:04:16.798Z,98301.53
2022-10-26T11:06:43.171Z,98289.56
2022-10-26T11:09:16.720Z,98298.00
2022-10-26T11:11:50.547Z,98299.31
2022-10-26T11:14:23.068Z,98300.59
2022-10-26T11:16:55.113Z,98309.84
2022-10-26T11:19:26.072Z,98323.47
2022-10-26T11:21:55.590Z,98326.72
2022-10-26T11:24:35.758Z,98327.84
2022-10-26T11:27:03.620Z,98327.63
2022-10-26T11:29:31.827Z,98336.22
2022-10-26T11:32:05.894Z,98331.72
2022-10-26T11:34:34.955Z,98325.88
2022-10-26T11:37:06.024Z,98313.53
2022-10-26T11:39:41.348Z,98319.78
2022-10-26T11:42:22.057Z,98331.44
2022-10-26T11:44:52.950Z,98322.19
2022-10-26T11:47:23.921Z,98320.69
2022-10-26T11:49:59.494Z,98323.59
2022-10-26T11:52:28.064Z,98322.06
2022-10-26T11:55:04.795Z,98331.72
2022-10-26T11:57:35.004Z,98341.66
2022-10-26T12:00:02.178Z,98346.19
2022-10-26T12:02:28.594Z,98337.09
2022-10-26T12:05:00.222Z,98341.16
2022-10-26T12:07:27.459Z,98339.63
2022-10-26T12:09:53.966Z,98344.44
2022-10-26T12:12:25.258Z,98339.19
2022-10-26T12:15:06.977Z,98337.22
2022-10-26T12:17:43.609Z,98326.03
2022-10-26T12:20:13.103Z,98339.94
2022-10-26T12:22:43.614Z,98344.94
2022-10-26T12:25:18.956Z,98347.38
2022-10-26T12:27:45.522Z,98335.03
2022-10-26T12:30:11.875Z,98344.31
2022-10-26T12:32:40.312Z,98349.53
2022-10-26T12:35:28.341Z,98350.31
2022-10-26T12:37:54.660Z,98354.44
2022-10-26T12:40:33.160Z,98350.88
2022-10-26T12:43:14.814Z,98356.50
2022-10-26T12:45:41.478Z,98362.50
2022-10-26T12:48:40.250Z,98370.09
2022-10-26T12:51:18.982Z,98356.03
2022-10-26T12:53:57.442Z,98363.22
2022-10-26T12:56:45.177Z,98364.19
2022-10-26T12:59:16.881Z,98357.91
2022-10-26T13:01:46.357Z,98363.56
2022-10-26T13:04:15.816Z,98367.56
2022-10-26T13:06:48.222Z,98371.50
2022-10-26T13:09:24.307Z,98368.59
2022-10-26T13:11:53.698Z,98364.56
2022-10-26T13:14:21.910Z,98363.78
2022-10-26T13:16:48.534Z,98359.03
2022-10-26T13:19:30.077Z,98361.50
2022-10-26T13:21:57.833Z,98363.56
2022-10-26T13:24:24.447Z,98373.34
2022-10-26T13:27:11.053Z,98377.50
2022-10-26T13:29:57.654Z,98369.06
2022-10-26T13:32:23.972Z,98375.56
2022-10-26T13:34:50.289Z,98368.41
2022-10-26T13:37:21.532Z,98374.47
2022-10-26T13:39:48.051Z,98378.44
2022-10-26T13:42:18.632Z,98373.22
2022-10-26T13:44:50.349Z,98375.91
2022-10-26T13:47:23.525Z,98385.88
2022-10-26T13:49:50.942Z,98385.78
2022-10-26T13:52:23.883Z,98394.56
2022-10-26T13:54:57.204Z,98395.28
2022-10-26T13:57:27.984Z,98402.06
2022-10-26T13:59:54.311Z,98398.09
2022-10-26T14:02:24.513Z,98403.28
2022-10-26T14:04:55.005Z,98408.41
2022-10-26T14:07:23.372Z,98399.19
2022-10-26T14:09:51.739Z,98412.38
2022-10-26T14:12:18.146Z,98410.34
2022-10-26T14:14:44.462Z,98417.09
2022-10-26T14:17:20.872Z,98408.72
2022-10-26T14:19:47.192Z,98414.19
2022-10-26T14:22:23.491Z,98413.25
2022-10-26T14:24:50.840Z,98417.44
2022-10-26T14:27:17.968Z,98422.66
2022-10-26T14:29:49.821Z,98422.41
2022-10-26T14:32:28.931Z,98425.28
2022-10-26T14:34:55.311Z,98426.91
2022-10-26T14:37:30.820Z,98423.41
2022-10-26T14:39:57.208Z,98428.75
2022-10-26T14:42:31.237Z,98432.59
2022-10-26T14:44:57.769Z,98443.34
2022-10-26T14:47:24.103Z,98449.72
2022-10-26T14:49:50.460Z,98452.00
2022-10-26T14:52:20.321Z,98453.31
2022-10-26T14:54:56.633Z,98455.56
2022-10-26T14:57:35.909Z,98471.19
2022-10-26T15:00:04.893Z,98475.56
2022-10-26T15:02:31.312Z,98466.91
2022-10-26T15:05:17.930Z,98490.53
2022-10-26T15:07:45.504Z,98497.66
2022-10-26T15:10:30.881Z,98497.53
2022-10-26T15:12:57.223Z,98506.91
2022-10-26T15:15:23.931Z,98506.34
2022-10-26T15:17:51.633Z,98512.19
2022-10-26T15:20:18.949Z,98509.13
2022-10-26T15:22:55.066Z,98526.94
2022-10-26T15:25:25.658Z,98535.03
2022-10-26T15:27:52.501Z,98536.06
2022-10-26T15:30:20.466Z,98544.13
2022-10-26T15:32:46.841Z,98534.59
2022-10-26T15:35:19.347Z,98545.84
2022-10-26T15:37:46.529Z,98545.94
2022-10-26T15:40:13.023Z,98550.91
2022-10-26T15:42:40.245Z,98561.91
2022-10-26T15:45:17.089Z,98564.72
2022-10-26T15:47:43.515Z,98571.03
2022-10-26T15:50:13.732Z,98567.50
2022-10-26T15:52:40.971Z,98567.16
2022-10-26T15:55:08.947Z,98578.03
2022-10-26T15:57:35.289Z,98589.72
2022-10-26T16:00:01.681Z,98591.78
2022-10-26T16:02:28.352Z,98593.59
2022-10-26T16:04:55.890Z,98599.91
2022-10-26T16:07:22.253Z,98611.28
2022-10-26T16:09:48.566Z,98616.50
2022-10-26T16:12:14.889Z,98624.06
2022-10-26T16:15:03.812Z,98626.53
2022-10-26T16:17:27.552Z,98640.63
2022-10-26T16:19:53.869Z,98643.22
2022-10-26T16:22:20.241Z,98649.97
2022-10-26T16:24:46.570Z,98641.78
2022-10-26T16:27:12.932Z,98653.28
2022-10-26T16:29:39.323Z,98659.44
2022-10-26T16:32:06.032Z,98667.22
2022-10-26T16:34:32.380Z,98666.25
2022-10-26T16:36:58.715Z,98668.13
2022-10-26T16:39:25.041Z,98671.09
2022-10-26T16:41:51.690Z,98676.50
2022-10-26T16:44:18.100Z,98684.94
2022-10-26T16:46:44.442Z,98677.84
2022-10-26T16:49:10.848Z,98681.97
2022-10-26T16:51:37.252Z,98677.38
2022-10-26T16:54:03.649Z,98689.44
2022-10-26T16:56:30.254Z,98698.00
2022-10-26T16:58:57.149Z,98691.97
2022-10-26T17:01:23.682Z,98698.16
2022-10-26T17:03:50.605Z,98701.31
2022-10-26T17:06:17.146Z,98702.47
2022-10-26T17:08:43.466Z,98700.78
2022-10-26T17:11:10.472Z,98717.22
2022-10-26T17:13:37.042Z,98711.47
2022-10-26T17:16:07.413Z,98728.47
2022-10-26T17:18:33.748Z,98722.34
2022-10-26T17:21:00.058Z,98735.34
2022-10-26T17:23:26.451Z,98743.25
2022-10-26T17:25:52.976Z,98738.06
2022-10-26T17:28:19.376Z,98753.44
2022-10-26T17:30:45.806Z,98762.34
2022-10-26T17:33:12.212Z,98766.91
2022-10-26T17:35:38.533Z,98771.50
2022-10-26T17:38:04.894Z,98779.50
2022-10-26T17:40:31.333Z,98781.81
2022-10-26T17:42:58.452Z,98784.38
2022-10-26T17:45:24.853Z,98792.94
2022-10-26T17:47:51.512Z,98794.19
2022-10-26T17:50:18.036Z,98803.81
2022-10-26T17:52:44.381Z,98814.56
2022-10-26T17:55:10.792Z,98814.25
2022-10-26T17:57:37.292Z,98821.72
2022-10-26T18:00:04.152Z,98814.03
2022-10-26T18:02:30.731Z,98819.19
2022-10-26T18:04:57.150Z,98822.78
2022-10-26T18:07:23.479Z,98826.72
2022-10-26T18:09:49.805Z,98830.69
2022-10-26T18:12:16.147Z,98831.22
2022-10-26T18:14:42.504Z,98838.56
2022-10-26T18:17:08.873Z,98838.25
2022-10-26T18:19:35.235Z,98845.75
2022-10-26T18:22:01.625Z,98848.38
2022-10-26T18:24:27.961Z,98853.84
2022-10-26T18:26:54.347Z,98853.94
2022-10-26T18:29:20.675Z,98863.53
2022-10-26T18:31:47.018Z,98872.81
2022-10-26T18:34:13.347Z,98866.78
2022-10-26T18:36:39.718Z,98884.19
2022-10-26T18:39:06.096Z,98882.31
2022-10-26T18:41:32.448Z,98886.03
2022-10-26T18:43:59.519Z,98889.34
2022-10-26T18:46:27.794Z,98894.63
2022-10-26T18:48:54.531Z,98891.63
2022-10-26T18:51:21.990Z,98905.00
2022-10-26T18:53:48.423Z,98899.53
2022-10-26T18:56:15.508Z,98908.13
2022-10-26T18:58:42.596Z,98901.16
2022-10-26T19:01:16.177Z,98907.16
2022-10-26T19:03:42.724Z,98911.16
2022-10-26T19:06:12.222Z,98909.63
2022-10-26T19:08:38.675Z,98915.31
2022-10-26T19:11:05.357Z,98924.72
2022-10-26T19:13:31.690Z,98924.78
2022-10-26T19:16:01.727Z,98926.09
2022-10-26T19:18:28.116Z,98924.72
2022-10-26T19:20:58.323Z,98932.75
2022-10-26T19:23:24.668Z,98943.84
2022-10-26T19:25:54.749Z,98936.22
2022-10-26T19:28:21.103Z,98936.44
2022-10-26T19:30:49.740Z,98946.75
2022-10-26T19:33:16.118Z,98948.25
2022-10-26T19:35:42.443Z,98949.88
2022-10-26T19:38:08.776Z,98940.16
2022-10-26T19:40:35.155Z,98950.16
2022-10-26T19:43:01.476Z,98958.25
2022-10-26T19:45:27.976Z,98965.56
2022-10-26T19:47:54.498Z,98967.97
2022-10-26T19:50:20.909Z,98974.63
2022-10-26T19:52:47.351Z,98970.53
2022-10-26T19:55:13.861Z,98983.06
2022-10-26T19:57:40.210Z,98988.28
2022-10-26T20:00:06.930Z,98988.16
2022-10-26T20:02:33.297Z,98995.25
2022-10-26T20:04:59.612Z,98994.75
2022-10-26T20:07:25.972Z,98991.31
2022-10-26T20:09:52.294Z,98990.22
2022-10-26T20:12:18.709Z,98991.75
2022-10-26T20:14:45.069Z,98990.72
2022-10-26T20:17:11.402Z,98997.69
2022-10-26T20:19:37.835Z,99006.72
2022-10-26T20:22:04.299Z,99007.06
2022-10-26T20:24:30.615Z,99001.28
2022-10-26T20:26:56.959Z,99007.78
2022-10-26T20:29:23.364Z,99010.44
2022-10-26T20:31:53.804Z,99010.31
2022-10-26T20:34:22.267Z,99015.19
2022-10-26T20:36:48.686Z,99011.81
2022-10-26T20:39:15.232Z,99012.88
2022-10-26T20:41:42.743Z,99011.47
2022-10-26T20:44:16.091Z,99006.84
2022-10-26T20:46:42.537Z,99011.81
2022-10-26T20:49:08.855Z,99015.31
2022-10-26T20:51:35.766Z,99008.34
2022-10-26T20:54:12.030Z,99013.91
2022-10-26T20:56:40.016Z,99011.94
2022-10-26T20:59:06.337Z,99016.56
2022-10-26T21:01:33.566Z,99011.38
2022-10-26T21:04:00.930Z,99011.13
2022-10-26T21:06:27.375Z,99019.63
2022-10-26T21:08:54.202Z,99026.44
2022-10-26T21:11:20.816Z,99028.75
2022-10-26T21:13:47.510Z,99038.25
2022-10-26T21:16:14.085Z,99034.09
2022-10-26T21:18:40.446Z,99037.13
2022-10-26T21:21:06.783Z,99042.31
2022-10-26T21:23:33.552Z,99038.63
2022-10-26T21:25:59.880Z,99034.34
2022-10-26T21:28:26.808Z,99035.38
2022-10-26T21:30:53.120Z,99037.00
2022-10-26T21:33:22.561Z,99035.41
2022-10-26T21:35:57.152Z,99031.56
2022-10-26T21:38:23.470Z,99028.75
2022-10-26T21:40:49.799Z,99023.06
2022-10-26T21:43:16.168Z,99024.59
2022-10-26T21:45:42.497Z,99025.41
2022-10-26T21:48:09.056Z,99029.00
2022-10-26T21:50:35.510Z,99025.28
2022-10-26T21:53:01.890Z,99043.28
2022-10-26T21:55:28.255Z,99045.38
2022-10-26T21:57:54.686Z,99045.81
2022-10-26T22:00:21.095Z,99041.88
2022-10-26T22:02:47.562Z,99040.25
2022-10-26T22:05:14.022Z,99044.44
2022-10-26T22:07:40.384Z,99037.59
2022-10-26T22:10:10.722Z,99039.22
2022-10-26T22:12:37.445Z,99042.25
2022-10-26T22:15:03.922Z,99044.53
2022-10-26T22:17:30.321Z,99049.16
2022-10-26T22:19:56.639Z,99047.06
2022-10-26T22:22:23.036Z,99050.56
2022-10-26T22:24:49.356Z,99056.00
2022-10-26T22:27:15.763Z,99055.94
2022-10-26T22:29:42.081Z,99052.75
2022-10-26T22:32:08.429Z,99061.94
2022-10-26T22:34:34.776Z,99058.59
2022-10-26T22:37:01.116Z,99064.28
2022-10-26T22:39:27.451Z,99051.59
2022-10-26T22:41:53.779Z,99050.78
2022-10-26T22:44:20.153Z,99053.69
2022-10-26T22:46:46.509Z,99052.28
2022-10-26T22:49:12.883Z,99045.91
2022-10-26T22:51:39.224Z,99056.13
2022-10-26T22:54:05.703Z,99059.88
2022-10-26T22:56:32.715Z,99057.66
2022-10-26T22:58:59.051Z,99055.34
2022-10-26T23:01:26.546Z,99051.38
2022-10-26T23:03:53.476Z,99049.63
2022-10-26T23:06:19.862Z,99052.88
2022-10-26T23:08:46.176Z,99047.19
2022-10-26T23:11:13.410Z,99040.47
2022-10-26T23:13:39.746Z,99045.47
2022-10-26T23:16:15.801Z,99059.63
2022-10-26T23:18:42.158Z,99066.00
2022-10-26T23:21:08.892Z,99064.16
2022-10-26T23:23:35.275Z,99063.44
2022-10-26T23:26:02.158Z,99068.78
2022-10-26T23:28:28.521Z,99068.31
2022-10-26T23:30:56.343Z,99063.06
2022-10-26T23:33:22.753Z,99065.94
2022-10-26T23:35:52.304Z,99076.59
2022-10-26T23:38:18.648Z,99088.59
2022-10-26T23:40:48.797Z,99093.56
2022-10-26T23:43:15.146Z,99096.19
2022-10-26T23:45:41.469Z,99093.75
2022-10-26T23:48:07.843Z,99093.41
2022-10-26T23:50:34.547Z,99088.34
2022-10-26T23:53:00.962Z,99100.59
2022-10-26T23:55:27.666Z,99102.94
2022-10-26T23:57:53.996Z,99102.41
